sensor_id;sensor_type;location;lat;lon;timestamp;temperature;humidity
43338;DHT22;28933;52.492;13.434;2023-07-20T00:00:35;19.50;97.70
43338;DHT22;28933;52.492;13.434;2023-07-20T00:03:21;19.50;97.80
43338;DHT22;28933;52.492;13.434;2023-07-20T00:06:10;19.50;97.80
43338;DHT22;28933;52.492;13.434;2023-07-20T00:08:56;19.50;97.90
43338;DHT22;28933;52.492;13.434;2023-07-20T00:11:49;19.50;97.90
43338;DHT22;28933;52.492;13.434;2023-07-20T00:14:38;19.40;98.00
43338;DHT22;28933;52.492;13.434;2023-07-20T00:17:24;19.40;97.90
43338;DHT22;28933;52.492;13.434;2023-07-20T00:20:11;19.50;98.00
43338;DHT22;28933;52.492;13.434;2023-07-20T00:22:57;19.40;98.10
43338;DHT22;28933;52.492;13.434;2023-07-20T00:25:43;19.50;98.10
43338;DHT22;28933;52.492;13.434;2023-07-20T00:28:29;19.50;98.20
43338;DHT22;28933;52.492;13.434;2023-07-20T00:31:15;19.50;98.20
43338;DHT22;28933;52.492;13.434;2023-07-20T00:34:01;19.40;98.20
43338;DHT22;28933;52.492;13.434;2023-07-20T00:36:47;19.50;98.20
43338;DHT22;28933;52.492;13.434;2023-07-20T00:39:34;19.50;98.30
43338;DHT22;28933;52.492;13.434;2023-07-20T00:42:20;19.50;98.30
43338;DHT22;28933;52.492;13.434;2023-07-20T00:45:06;19.50;98.30
43338;DHT22;28933;52.492;13.434;2023-07-20T00:47:52;19.50;98.30
43338;DHT22;28933;52.492;13.434;2023-07-20T00:50:39;19.50;98.40
43338;DHT22;28933;52.492;13.434;2023-07-20T00:53:26;19.50;98.40
43338;DHT22;28933;52.492;13.434;2023-07-20T00:56:12;19.50;98.40
43338;DHT22;28933;52.492;13.434;2023-07-20T00:58:58;19.40;98.40
43338;DHT22;28933;52.492;13.434;2023-07-20T01:01:44;19.40;98.50
43338;DHT22;28933;52.492;13.434;2023-07-20T01:04:30;19.40;98.60
43338;DHT22;28933;52.492;13.434;2023-07-20T01:13:20;19.30;98.60
43338;DHT22;28933;52.492;13.434;2023-07-20T01:16:06;19.30;98.60
43338;DHT22;28933;52.492;13.434;2023-07-20T01:18:52;19.20;98.70
43338;DHT22;28933;52.492;13.434;2023-07-20T01:33:45;19.10;98.90
43338;DHT22;28933;52.492;13.434;2023-07-20T01:36:35;19.10;98.90
43338;DHT22;28933;52.492;13.434;2023-07-20T01:39:21;19.10;98.90
43338;DHT22;28933;52.492;13.434;2023-07-20T01:42:07;19.10;98.90
43338;DHT22;28933;52.492;13.434;2023-07-20T01:44:54;19.10;99.00
43338;DHT22;28933;52.492;13.434;2023-07-20T01:47:40;19.10;99.00
43338;DHT22;28933;52.492;13.434;2023-07-20T01:50:26;19.00;99.10
43338;DHT22;28933;52.492;13.434;2023-07-20T01:53:13;19.00;99.00
43338;DHT22;28933;52.492;13.434;2023-07-20T01:55:59;19.00;99.00
43338;DHT22;28933;52.492;13.434;2023-07-20T01:58:45;19.00;99.00
43338;DHT22;28933;52.492;13.434;2023-07-20T02:01:31;19.00;99.10
43338;DHT22;28933;52.492;13.434;2023-07-20T02:04:16;19.00;99.10
43338;DHT22;28933;52.492;13.434;2023-07-20T02:07:03;19.00;99.20
43338;DHT22;28933;52.492;13.434;2023-07-20T02:09:49;19.00;99.20
43338;DHT22;28933;52.492;13.434;2023-07-20T02:12:35;19.00;99.20
43338;DHT22;28933;52.492;13.434;2023-07-20T02:15:22;18.90;99.20
43338;DHT22;28933;52.492;13.434;2023-07-20T02:18:08;18.80;99.10
43338;DHT22;28933;52.492;13.434;2023-07-20T02:20:54;18.80;99.10
43338;DHT22;28933;52.492;13.434;2023-07-20T02:23:40;18.80;99.10
43338;DHT22;28933;52.492;13.434;2023-07-20T02:26:26;18.80;99.10
43338;DHT22;28933;52.492;13.434;2023-07-20T02:29:12;18.80;99.20
43338;DHT22;28933;52.492;13.434;2023-07-20T02:31:58;18.70;99.20
43338;DHT22;28933;52.492;13.434;2023-07-20T02:34:43;18.70;99.30
43338;DHT22;28933;52.492;13.434;2023-07-20T02:37:29;18.70;99.30
43338;DHT22;28933;52.492;13.434;2023-07-20T02:40:15;18.70;99.40
43338;DHT22;28933;52.492;13.434;2023-07-20T02:43:01;18.60;99.50
43338;DHT22;28933;52.492;13.434;2023-07-20T02:45:49;18.60;99.50
43338;DHT22;28933;52.492;13.434;2023-07-20T02:48:36;18.60;99.80
43338;DHT22;28933;52.492;13.434;2023-07-20T02:51:22;18.60;99.60
43338;DHT22;28933;52.492;13.434;2023-07-20T02:54:08;18.60;99.70
43338;DHT22;28933;52.492;13.434;2023-07-20T02:56:54;18.60;99.60
43338;DHT22;28933;52.492;13.434;2023-07-20T02:59:39;18.60;99.60
43338;DHT22;28933;52.492;13.434;2023-07-20T03:02:25;18.60;99.60
43338;DHT22;28933;52.492;13.434;2023-07-20T03:05:11;18.60;99.60
43338;DHT22;28933;52.492;13.434;2023-07-20T03:07:57;18.60;99.60
43338;DHT22;28933;52.492;13.434;2023-07-20T03:10:48;18.50;99.60
43338;DHT22;28933;52.492;13.434;2023-07-20T03:13:34;18.50;99.60
43338;DHT22;28933;52.492;13.434;2023-07-20T03:16:21;18.40;99.80
43338;DHT22;28933;52.492;13.434;2023-07-20T03:19:07;18.40;99.90
43338;DHT22;28933;52.492;13.434;2023-07-20T03:21:53;18.40;99.90
43338;DHT22;28933;52.492;13.434;2023-07-20T03:24:39;18.30;99.90
43338;DHT22;28933;52.492;13.434;2023-07-20T03:27:25;18.40;99.90
43338;DHT22;28933;52.492;13.434;2023-07-20T03:30:11;18.40;99.90
43338;DHT22;28933;52.492;13.434;2023-07-20T03:32:57;18.40;99.90
43338;DHT22;28933;52.492;13.434;2023-07-20T03:35:43;18.40;99.80
43338;DHT22;28933;52.492;13.434;2023-07-20T03:38:29;18.40;99.90
43338;DHT22;28933;52.492;13.434;2023-07-20T03:41:15;18.50;99.90
43338;DHT22;28933;52.492;13.434;2023-07-20T03:44:02;18.50;99.90
43338;DHT22;28933;52.492;13.434;2023-07-20T03:46:48;18.50;99.90
43338;DHT22;28933;52.492;13.434;2023-07-20T03:49:34;18.60;99.90
43338;DHT22;28933;52.492;13.434;2023-07-20T03:52:19;18.60;99.90
43338;DHT22;28933;52.492;13.434;2023-07-20T03:55:06;18.60;99.90
43338;DHT22;28933;52.492;13.434;2023-07-20T03:57:52;18.60;99.70
43338;DHT22;28933;52.492;13.434;2023-07-20T04:00:38;18.60;99.90
43338;DHT22;28933;52.492;13.434;2023-07-20T04:03:24;18.60;99.90
43338;DHT22;28933;52.492;13.434;2023-07-20T04:06:12;18.60;99.80
43338;DHT22;28933;52.492;13.434;2023-07-20T04:08:59;18.50;99.80
43338;DHT22;28933;52.492;13.434;2023-07-20T04:11:45;18.40;99.90
43338;DHT22;28933;52.492;13.434;2023-07-20T04:14:32;18.40;99.90
43338;DHT22;28933;52.492;13.434;2023-07-20T04:17:18;18.40;99.90
43338;DHT22;28933;52.492;13.434;2023-07-20T04:20:04;18.40;99.90
43338;DHT22;28933;52.492;13.434;2023-07-20T04:22:51;18.40;99.90
43338;DHT22;28933;52.492;13.434;2023-07-20T04:25:39;18.40;99.90
43338;DHT22;28933;52.492;13.434;2023-07-20T04:28:25;18.40;99.90
43338;DHT22;28933;52.492;13.434;2023-07-20T04:31:15;18.50;99.90
43338;DHT22;28933;52.492;13.434;2023-07-20T04:34:01;18.50;99.90
43338;DHT22;28933;52.492;13.434;2023-07-20T04:36:47;18.40;99.90
43338;DHT22;28933;52.492;13.434;2023-07-20T04:39:33;18.50;99.90
43338;DHT22;28933;52.492;13.434;2023-07-20T04:42:19;18.50;99.90
43338;DHT22;28933;52.492;13.434;2023-07-20T04:45:06;18.40;99.90
43338;DHT22;28933;52.492;13.434;2023-07-20T04:47:52;18.50;99.90
43338;DHT22;28933;52.492;13.434;2023-07-20T04:50:40;18.50;99.90
43338;DHT22;28933;52.492;13.434;2023-07-20T04:53:26;18.60;99.90
43338;DHT22;28933;52.492;13.434;2023-07-20T04:56:12;18.60;99.90
43338;DHT22;28933;52.492;13.434;2023-07-20T04:58:58;18.70;99.90
43338;DHT22;28933;52.492;13.434;2023-07-20T05:01:44;18.80;99.90
43338;DHT22;28933;52.492;13.434;2023-07-20T05:04:30;18.80;99.90
43338;DHT22;28933;52.492;13.434;2023-07-20T05:07:16;18.90;99.80
43338;DHT22;28933;52.492;13.434;2023-07-20T05:10:02;19.00;99.70
43338;DHT22;28933;52.492;13.434;2023-07-20T05:12:48;19.00;99.60
43338;DHT22;28933;52.492;13.434;2023-07-20T05:15:34;19.10;99.40
43338;DHT22;28933;52.492;13.434;2023-07-20T05:18:21;19.00;99.40
43338;DHT22;28933;52.492;13.434;2023-07-20T05:21:07;19.00;99.60
43338;DHT22;28933;52.492;13.434;2023-07-20T05:23:53;19.10;99.40
43338;DHT22;28933;52.492;13.434;2023-07-20T05:26:39;19.10;99.20
43338;DHT22;28933;52.492;13.434;2023-07-20T05:29:25;19.10;99.10
43338;DHT22;28933;52.492;13.434;2023-07-20T05:32:12;19.20;99.10
43338;DHT22;28933;52.492;13.434;2023-07-20T05:34:58;19.20;98.90
43338;DHT22;28933;52.492;13.434;2023-07-20T05:37:45;19.30;98.90
43338;DHT22;28933;52.492;13.434;2023-07-20T05:40:31;19.30;98.70
43338;DHT22;28933;52.492;13.434;2023-07-20T05:43:17;19.40;98.50
43338;DHT22;28933;52.492;13.434;2023-07-20T05:46:02;19.50;98.40
43338;DHT22;28933;52.492;13.434;2023-07-20T05:48:50;19.60;98.40
43338;DHT22;28933;52.492;13.434;2023-07-20T05:51:36;19.70;98.20
43338;DHT22;28933;52.492;13.434;2023-07-20T05:54:23;19.70;97.90
43338;DHT22;28933;52.492;13.434;2023-07-20T05:57:09;19.90;97.80
43338;DHT22;28933;52.492;13.434;2023-07-20T05:59:55;20.00;97.70
43338;DHT22;28933;52.492;13.434;2023-07-20T06:02:41;20.10;97.50
43338;DHT22;28933;52.492;13.434;2023-07-20T06:05:29;20.20;97.40
43338;DHT22;28933;52.492;13.434;2023-07-20T06:08:16;20.20;97.20
43338;DHT22;28933;52.492;13.434;2023-07-20T06:11:02;20.30;97.10
43338;DHT22;28933;52.492;13.434;2023-07-20T06:13:47;20.30;96.90
43338;DHT22;28933;52.492;13.434;2023-07-20T06:16:33;20.30;96.70
43338;DHT22;28933;52.492;13.434;2023-07-20T06:19:19;20.30;96.50
43338;DHT22;28933;52.492;13.434;2023-07-20T06:22:05;20.30;96.50
43338;DHT22;28933;52.492;13.434;2023-07-20T06:24:51;20.30;96.40
43338;DHT22;28933;52.492;13.434;2023-07-20T06:27:37;20.20;96.40
43338;DHT22;28933;52.492;13.434;2023-07-20T06:30:24;20.20;96.50
43338;DHT22;28933;52.492;13.434;2023-07-20T06:33:10;20.20;96.60
43338;DHT22;28933;52.492;13.434;2023-07-20T06:35:56;20.20;96.40
43338;DHT22;28933;52.492;13.434;2023-07-20T06:38:42;20.20;96.30
43338;DHT22;28933;52.492;13.434;2023-07-20T06:41:28;20.20;96.20
43338;DHT22;28933;52.492;13.434;2023-07-20T06:44:14;20.30;96.10
43338;DHT22;28933;52.492;13.434;2023-07-20T06:47:00;20.40;96.10
43338;DHT22;28933;52.492;13.434;2023-07-20T06:49:46;20.50;96.00
43338;DHT22;28933;52.492;13.434;2023-07-20T06:52:32;20.50;95.90
43338;DHT22;28933;52.492;13.434;2023-07-20T06:55:18;20.60;95.70
43338;DHT22;28933;52.492;13.434;2023-07-20T06:58:04;20.70;95.50
43338;DHT22;28933;52.492;13.434;2023-07-20T07:00:50;20.70;95.10
43338;DHT22;28933;52.492;13.434;2023-07-20T07:03:36;20.70;94.80
43338;DHT22;28933;52.492;13.434;2023-07-20T07:06:22;20.70;94.60
43338;DHT22;28933;52.492;13.434;2023-07-20T07:09:08;20.70;94.50
43338;DHT22;28933;52.492;13.434;2023-07-20T07:11:54;20.70;94.20
43338;DHT22;28933;52.492;13.434;2023-07-20T07:14:40;20.70;94.00
43338;DHT22;28933;52.492;13.434;2023-07-20T07:17:26;20.60;93.60
43338;DHT22;28933;52.492;13.434;2023-07-20T07:20:12;20.50;93.50
43338;DHT22;28933;52.492;13.434;2023-07-20T07:22:58;20.50;93.50
43338;DHT22;28933;52.492;13.434;2023-07-20T07:25:44;20.50;93.60
43338;DHT22;28933;52.492;13.434;2023-07-20T07:28:30;20.50;93.70
43338;DHT22;28933;52.492;13.434;2023-07-20T07:31:17;20.60;93.90
43338;DHT22;28933;52.492;13.434;2023-07-20T07:34:03;20.70;93.80
43338;DHT22;28933;52.492;13.434;2023-07-20T07:36:50;20.80;93.60
43338;DHT22;28933;52.492;13.434;2023-07-20T07:39:36;20.90;93.00
43338;DHT22;28933;52.492;13.434;2023-07-20T07:42:22;21.00;92.50
43338;DHT22;28933;52.492;13.434;2023-07-20T07:45:08;21.00;92.00
43338;DHT22;28933;52.492;13.434;2023-07-20T07:47:54;21.10;92.00
43338;DHT22;28933;52.492;13.434;2023-07-20T07:50:40;21.20;91.90
43338;DHT22;28933;52.492;13.434;2023-07-20T07:53:26;21.30;91.50
43338;DHT22;28933;52.492;13.434;2023-07-20T07:56:12;21.40;91.70
43338;DHT22;28933;52.492;13.434;2023-07-20T07:58:58;21.50;91.90
43338;DHT22;28933;52.492;13.434;2023-07-20T08:01:44;21.70;91.90
43338;DHT22;28933;52.492;13.434;2023-07-20T08:04:30;21.70;91.10
43338;DHT22;28933;52.492;13.434;2023-07-20T08:09:51;21.90;90.80
43338;DHT22;28933;52.492;13.434;2023-07-20T08:12:37;22.00;90.60
43338;DHT22;28933;52.492;13.434;2023-07-20T08:15:23;22.10;89.70
43338;DHT22;28933;52.492;13.434;2023-07-20T08:18:09;22.30;88.50
43338;DHT22;28933;52.492;13.434;2023-07-20T08:20:55;22.40;88.10
43338;DHT22;28933;52.492;13.434;2023-07-20T08:23:41;22.50;88.20
43338;DHT22;28933;52.492;13.434;2023-07-20T08:26:27;22.50;86.70
43338;DHT22;28933;52.492;13.434;2023-07-20T08:29:13;22.40;86.90
43338;DHT22;28933;52.492;13.434;2023-07-20T08:31:59;22.40;86.40
43338;DHT22;28933;52.492;13.434;2023-07-20T08:34:45;22.50;86.10
43338;DHT22;28933;52.492;13.434;2023-07-20T08:37:31;22.50;85.80
43338;DHT22;28933;52.492;13.434;2023-07-20T08:40:17;22.60;85.60
43338;DHT22;28933;52.492;13.434;2023-07-20T08:43:03;22.60;85.70
43338;DHT22;28933;52.492;13.434;2023-07-20T08:45:50;22.70;85.90
43338;DHT22;28933;52.492;13.434;2023-07-20T08:48:37;22.70;86.50
43338;DHT22;28933;52.492;13.434;2023-07-20T08:51:25;22.80;86.10
43338;DHT22;28933;52.492;13.434;2023-07-20T08:54:12;22.80;85.80
43338;DHT22;28933;52.492;13.434;2023-07-20T08:57:02;22.90;85.90
43338;DHT22;28933;52.492;13.434;2023-07-20T08:59:48;22.80;85.30
43338;DHT22;28933;52.492;13.434;2023-07-20T09:02:39;22.80;84.80
43338;DHT22;28933;52.492;13.434;2023-07-20T09:05:28;22.80;84.30
43338;DHT22;28933;52.492;13.434;2023-07-20T09:08:14;22.80;83.90
43338;DHT22;28933;52.492;13.434;2023-07-20T09:11:00;22.70;83.60
43338;DHT22;28933;52.492;13.434;2023-07-20T09:13:46;22.60;83.60
43338;DHT22;28933;52.492;13.434;2023-07-20T09:16:32;22.70;83.50
43338;DHT22;28933;52.492;13.434;2023-07-20T09:19:18;22.70;82.90
43338;DHT22;28933;52.492;13.434;2023-07-20T09:22:05;22.80;83.00
43338;DHT22;28933;52.492;13.434;2023-07-20T09:24:52;22.90;83.10
43338;DHT22;28933;52.492;13.434;2023-07-20T09:27:39;23.00;82.90
43338;DHT22;28933;52.492;13.434;2023-07-20T09:30:26;23.10;82.40
43338;DHT22;28933;52.492;13.434;2023-07-20T09:33:19;23.30;82.40
43338;DHT22;28933;52.492;13.434;2023-07-20T09:36:06;23.40;82.10
43338;DHT22;28933;52.492;13.434;2023-07-20T09:38:51;23.50;82.00
43338;DHT22;28933;52.492;13.434;2023-07-20T09:41:41;23.60;81.30
43338;DHT22;28933;52.492;13.434;2023-07-20T09:44:28;23.80;81.70
43338;DHT22;28933;52.492;13.434;2023-07-20T09:47:22;23.80;80.40
43338;DHT22;28933;52.492;13.434;2023-07-20T09:50:08;23.80;80.00
43338;DHT22;28933;52.492;13.434;2023-07-20T09:52:56;23.80;80.20
43338;DHT22;28933;52.492;13.434;2023-07-20T09:55:44;23.80;79.80
43338;DHT22;28933;52.492;13.434;2023-07-20T09:58:31;23.70;79.30
43338;DHT22;28933;52.492;13.434;2023-07-20T10:01:20;23.60;78.70
43338;DHT22;28933;52.492;13.434;2023-07-20T10:04:09;23.40;78.40
43338;DHT22;28933;52.492;13.434;2023-07-20T10:06:59;23.20;78.30
43338;DHT22;28933;52.492;13.434;2023-07-20T10:09:48;23.00;78.70
43338;DHT22;28933;52.492;13.434;2023-07-20T10:12:34;22.80;78.90
43338;DHT22;28933;52.492;13.434;2023-07-20T10:15:40;22.60;79.50
43338;DHT22;28933;52.492;13.434;2023-07-20T10:18:33;22.60;79.70
43338;DHT22;28933;52.492;13.434;2023-07-20T10:21:21;22.60;80.10
43338;DHT22;28933;52.492;13.434;2023-07-20T10:24:09;22.60;80.60
43338;DHT22;28933;52.492;13.434;2023-07-20T10:26:57;22.60;81.10
43338;DHT22;28933;52.492;13.434;2023-07-20T10:29:44;22.70;81.20
43338;DHT22;28933;52.492;13.434;2023-07-20T10:32:30;22.80;81.50
43338;DHT22;28933;52.492;13.434;2023-07-20T10:35:17;22.80;80.70
43338;DHT22;28933;52.492;13.434;2023-07-20T10:38:03;22.60;81.00
43338;DHT22;28933;52.492;13.434;2023-07-20T10:40:56;22.50;81.10
43338;DHT22;28933;52.492;13.434;2023-07-20T10:43:45;22.40;80.90
43338;DHT22;28933;52.492;13.434;2023-07-20T10:49:20;22.50;80.30
43338;DHT22;28933;52.492;13.434;2023-07-20T10:52:12;22.40;80.40
43338;DHT22;28933;52.492;13.434;2023-07-20T10:55:10;22.40;80.70
43338;DHT22;28933;52.492;13.434;2023-07-20T10:58:15;22.20;81.60
43338;DHT22;28933;52.492;13.434;2023-07-20T11:01:03;22.20;82.50
43338;DHT22;28933;52.492;13.434;2023-07-20T11:03:50;22.30;82.90
43338;DHT22;28933;52.492;13.434;2023-07-20T11:06:36;22.40;82.40
43338;DHT22;28933;52.492;13.434;2023-07-20T11:09:23;22.40;82.10
43338;DHT22;28933;52.492;13.434;2023-07-20T11:12:12;22.50;82.10
43338;DHT22;28933;52.492;13.434;2023-07-20T11:14:59;22.50;82.50
43338;DHT22;28933;52.492;13.434;2023-07-20T11:17:45;22.60;82.70
43338;DHT22;28933;52.492;13.434;2023-07-20T11:20:31;22.60;82.40
43338;DHT22;28933;52.492;13.434;2023-07-20T11:23:17;22.70;82.60
43338;DHT22;28933;52.492;13.434;2023-07-20T11:26:03;22.70;81.80
43338;DHT22;28933;52.492;13.434;2023-07-20T11:28:50;22.80;81.20
43338;DHT22;28933;52.492;13.434;2023-07-20T11:31:42;22.80;81.40
43338;DHT22;28933;52.492;13.434;2023-07-20T11:34:30;22.90;81.40
43338;DHT22;28933;52.492;13.434;2023-07-20T11:37:17;23.00;81.40
43338;DHT22;28933;52.492;13.434;2023-07-20T11:40:04;23.00;81.30
43338;DHT22;28933;52.492;13.434;2023-07-20T11:42:50;23.20;80.80
43338;DHT22;28933;52.492;13.434;2023-07-20T11:45:38;23.20;81.00
43338;DHT22;28933;52.492;13.434;2023-07-20T11:48:24;23.30;81.00
43338;DHT22;28933;52.492;13.434;2023-07-20T11:51:14;23.40;80.90
43338;DHT22;28933;52.492;13.434;2023-07-20T11:54:01;23.40;80.80
43338;DHT22;28933;52.492;13.434;2023-07-20T11:56:48;23.50;80.20
43338;DHT22;28933;52.492;13.434;2023-07-20T11:59:34;23.50;79.70
43338;DHT22;28933;52.492;13.434;2023-07-20T12:02:20;23.60;79.10
43338;DHT22;28933;52.492;13.434;2023-07-20T12:05:06;23.60;78.60
43338;DHT22;28933;52.492;13.434;2023-07-20T12:07:54;23.60;77.60
43338;DHT22;28933;52.492;13.434;2023-07-20T12:10:40;23.60;77.20
43338;DHT22;28933;52.492;13.434;2023-07-20T12:13:42;23.60;77.70
43338;DHT22;28933;52.492;13.434;2023-07-20T12:16:29;23.50;77.80
43338;DHT22;28933;52.492;13.434;2023-07-20T12:19:15;23.40;77.80
43338;DHT22;28933;52.492;13.434;2023-07-20T12:22:01;23.30;78.00
43338;DHT22;28933;52.492;13.434;2023-07-20T12:24:52;23.10;77.70
43338;DHT22;28933;52.492;13.434;2023-07-20T12:27:38;22.90;78.10
43338;DHT22;28933;52.492;13.434;2023-07-20T12:30:24;22.80;77.80
43338;DHT22;28933;52.492;13.434;2023-07-20T12:33:10;22.90;77.70
43338;DHT22;28933;52.492;13.434;2023-07-20T12:36:00;22.80;77.40
43338;DHT22;28933;52.492;13.434;2023-07-20T12:38:47;22.90;77.40
43338;DHT22;28933;52.492;13.434;2023-07-20T12:41:33;22.90;77.50
43338;DHT22;28933;52.492;13.434;2023-07-20T12:44:18;22.90;77.00
43338;DHT22;28933;52.492;13.434;2023-07-20T12:47:05;22.90;76.80
43338;DHT22;28933;52.492;13.434;2023-07-20T12:49:51;23.00;76.90
43338;DHT22;28933;52.492;13.434;2023-07-20T12:52:37;23.10;76.10
43338;DHT22;28933;52.492;13.434;2023-07-20T12:55:24;23.10;75.50
43338;DHT22;28933;52.492;13.434;2023-07-20T12:58:11;23.20;75.30
43338;DHT22;28933;52.492;13.434;2023-07-20T13:00:57;23.30;75.70
43338;DHT22;28933;52.492;13.434;2023-07-20T13:03:43;23.40;75.30
43338;DHT22;28933;52.492;13.434;2023-07-20T13:06:29;23.40;74.40
43338;DHT22;28933;52.492;13.434;2023-07-20T13:09:15;23.50;73.80
43338;DHT22;28933;52.492;13.434;2023-07-20T13:12:01;23.60;73.20
43338;DHT22;28933;52.492;13.434;2023-07-20T13:14:47;23.70;72.20
43338;DHT22;28933;52.492;13.434;2023-07-20T13:17:33;23.80;71.50
43338;DHT22;28933;52.492;13.434;2023-07-20T13:20:20;23.90;69.30
43338;DHT22;28933;52.492;13.434;2023-07-20T13:23:05;23.80;67.40
43338;DHT22;28933;52.492;13.434;2023-07-20T13:25:51;23.80;68.20
43338;DHT22;28933;52.492;13.434;2023-07-20T13:28:37;23.90;68.00
43338;DHT22;28933;52.492;13.434;2023-07-20T13:31:23;24.00;66.80
43338;DHT22;28933;52.492;13.434;2023-07-20T13:34:09;24.10;65.40
43338;DHT22;28933;52.492;13.434;2023-07-20T13:36:55;24.00;64.80
43338;DHT22;28933;52.492;13.434;2023-07-20T13:39:41;24.10;65.50
43338;DHT22;28933;52.492;13.434;2023-07-20T13:42:27;24.20;65.20
43338;DHT22;28933;52.492;13.434;2023-07-20T13:45:13;24.40;64.60
43338;DHT22;28933;52.492;13.434;2023-07-20T13:47:59;24.50;64.00
43338;DHT22;28933;52.492;13.434;2023-07-20T13:50:46;24.50;62.60
43338;DHT22;28933;52.492;13.434;2023-07-20T13:53:31;24.50;61.10
43338;DHT22;28933;52.492;13.434;2023-07-20T13:56:17;24.50;62.40
43338;DHT22;28933;52.492;13.434;2023-07-20T13:59:03;24.60;62.20
43338;DHT22;28933;52.492;13.434;2023-07-20T14:01:49;24.70;62.10
43338;DHT22;28933;52.492;13.434;2023-07-20T14:04:35;24.80;61.40
43338;DHT22;28933;52.492;13.434;2023-07-20T14:07:22;24.80;62.00
43338;DHT22;28933;52.492;13.434;2023-07-20T14:10:08;24.70;62.00
43338;DHT22;28933;52.492;13.434;2023-07-20T14:12:54;24.70;62.60
43338;DHT22;28933;52.492;13.434;2023-07-20T14:15:40;24.70;62.90
43338;DHT22;28933;52.492;13.434;2023-07-20T14:18:26;24.70;62.30
43338;DHT22;28933;52.492;13.434;2023-07-20T14:21:12;24.80;61.80
43338;DHT22;28933;52.492;13.434;2023-07-20T14:23:58;24.90;62.00
43338;DHT22;28933;52.492;13.434;2023-07-20T14:26:44;25.10;61.10
43338;DHT22;28933;52.492;13.434;2023-07-20T14:29:30;25.10;60.50
43338;DHT22;28933;52.492;13.434;2023-07-20T14:32:17;24.90;60.50
43338;DHT22;28933;52.492;13.434;2023-07-20T14:35:03;24.90;60.10
43338;DHT22;28933;52.492;13.434;2023-07-20T14:37:49;24.90;59.80
43338;DHT22;28933;52.492;13.434;2023-07-20T14:40:36;25.00;59.60
43338;DHT22;28933;52.492;13.434;2023-07-20T14:43:22;25.00;59.50
43338;DHT22;28933;52.492;13.434;2023-07-20T14:46:07;25.10;59.80
43338;DHT22;28933;52.492;13.434;2023-07-20T14:48:53;25.00;59.10
43338;DHT22;28933;52.492;13.434;2023-07-20T14:51:39;24.80;58.70
43338;DHT22;28933;52.492;13.434;2023-07-20T14:54:29;24.70;58.50
43338;DHT22;28933;52.492;13.434;2023-07-20T14:57:15;24.80;59.00
43338;DHT22;28933;52.492;13.434;2023-07-20T15:00:02;25.00;59.40
43338;DHT22;28933;52.492;13.434;2023-07-20T15:02:52;25.20;59.30
43338;DHT22;28933;52.492;13.434;2023-07-20T15:05:41;25.50;58.60
43338;DHT22;28933;52.492;13.434;2023-07-20T15:08:28;25.60;58.40
43338;DHT22;28933;52.492;13.434;2023-07-20T15:11:14;25.70;57.90
43338;DHT22;28933;52.492;13.434;2023-07-20T15:14:00;25.60;57.40
43338;DHT22;28933;52.492;13.434;2023-07-20T15:16:46;25.50;57.60
43338;DHT22;28933;52.492;13.434;2023-07-20T15:19:32;25.50;56.60
43338;DHT22;28933;52.492;13.434;2023-07-20T15:22:20;25.40;57.80
43338;DHT22;28933;52.492;13.434;2023-07-20T15:25:08;25.40;57.80
43338;DHT22;28933;52.492;13.434;2023-07-20T15:27:56;25.40;57.10
43338;DHT22;28933;52.492;13.434;2023-07-20T15:30:42;25.30;57.30
43338;DHT22;28933;52.492;13.434;2023-07-20T15:33:28;25.20;57.30
43338;DHT22;28933;52.492;13.434;2023-07-20T15:36:14;25.20;57.00
43338;DHT22;28933;52.492;13.434;2023-07-20T15:39:00;25.00;57.00
43338;DHT22;28933;52.492;13.434;2023-07-20T15:41:47;24.90;57.30
43338;DHT22;28933;52.492;13.434;2023-07-20T15:44:33;24.80;57.00
43338;DHT22;28933;52.492;13.434;2023-07-20T15:47:20;24.80;57.80
43338;DHT22;28933;52.492;13.434;2023-07-20T15:50:06;24.70;57.60
43338;DHT22;28933;52.492;13.434;2023-07-20T15:52:52;24.80;57.60
43338;DHT22;28933;52.492;13.434;2023-07-20T15:55:38;25.00;56.50
43338;DHT22;28933;52.492;13.434;2023-07-20T15:58:24;25.10;56.30
43338;DHT22;28933;52.492;13.434;2023-07-20T16:01:10;25.20;56.10
43338;DHT22;28933;52.492;13.434;2023-07-20T16:03:56;25.10;56.40
43338;DHT22;28933;52.492;13.434;2023-07-20T16:06:42;25.10;56.80
43338;DHT22;28933;52.492;13.434;2023-07-20T16:09:28;25.00;56.70
43338;DHT22;28933;52.492;13.434;2023-07-20T16:12:14;24.90;56.90
43338;DHT22;28933;52.492;13.434;2023-07-20T16:15:01;24.90;57.00
43338;DHT22;28933;52.492;13.434;2023-07-20T16:17:47;24.70;56.70
43338;DHT22;28933;52.492;13.434;2023-07-20T16:20:32;24.50;56.90
43338;DHT22;28933;52.492;13.434;2023-07-20T16:23:18;24.20;57.30
43338;DHT22;28933;52.492;13.434;2023-07-20T16:26:04;24.20;57.80
43338;DHT22;28933;52.492;13.434;2023-07-20T16:28:50;24.00;58.20
43338;DHT22;28933;52.492;13.434;2023-07-20T16:31:36;24.00;58.60
43338;DHT22;28933;52.492;13.434;2023-07-20T16:34:23;24.00;58.70
43338;DHT22;28933;52.492;13.434;2023-07-20T16:37:09;24.10;58.70
43338;DHT22;28933;52.492;13.434;2023-07-20T16:39:55;24.10;59.00
43338;DHT22;28933;52.492;13.434;2023-07-20T16:42:42;24.00;59.00
43338;DHT22;28933;52.492;13.434;2023-07-20T16:45:28;23.90;59.00
43338;DHT22;28933;52.492;13.434;2023-07-20T16:48:14;23.80;58.10
43338;DHT22;28933;52.492;13.434;2023-07-20T16:51:00;23.60;58.60
43338;DHT22;28933;52.492;13.434;2023-07-20T16:53:48;23.60;59.10
43338;DHT22;28933;52.492;13.434;2023-07-20T16:56:33;23.80;58.90
43338;DHT22;28933;52.492;13.434;2023-07-20T16:59:19;23.90;58.50
43338;DHT22;28933;52.492;13.434;2023-07-20T17:02:06;23.90;58.50
43338;DHT22;28933;52.492;13.434;2023-07-20T17:04:52;23.90;58.90
43338;DHT22;28933;52.492;13.434;2023-07-20T17:07:39;23.80;59.50
43338;DHT22;28933;52.492;13.434;2023-07-20T17:10:25;23.80;59.70
43338;DHT22;28933;52.492;13.434;2023-07-20T17:13:11;23.90;60.00
43338;DHT22;28933;52.492;13.434;2023-07-20T17:15:57;23.90;60.50
43338;DHT22;28933;52.492;13.434;2023-07-20T17:18:43;23.90;60.20
43338;DHT22;28933;52.492;13.434;2023-07-20T17:21:29;23.90;59.70
43338;DHT22;28933;52.492;13.434;2023-07-20T17:24:17;23.80;60.20
43338;DHT22;28933;52.492;13.434;2023-07-20T17:27:04;23.60;60.10
43338;DHT22;28933;52.492;13.434;2023-07-20T17:29:50;23.50;60.20
43338;DHT22;28933;52.492;13.434;2023-07-20T17:32:36;23.30;60.60
43338;DHT22;28933;52.492;13.434;2023-07-20T17:35:22;23.30;61.10
43338;DHT22;28933;52.492;13.434;2023-07-20T17:38:08;23.30;60.80